sensor_id;sensor_type;location;lat;lon;timestamp;P1;durP1;ratioP1;P2;durP2;ratioP2
19679;SDS011;9989;48.962;9.182;2022-08-19T00:01:47;18.10;;;12.07;;
19679;SDS011;9989;48.962;9.182;2022-08-19T00:04:15;18.97;;;12.03;;
19679;SDS011;9989;48.962;9.182;2022-08-19T00:06:45;17.30;;;11.57;;
19679;SDS011;9989;48.962;9.182;2022-08-19T00:09:12;17.77;;;12.57;;
19679;SDS011;9989;48.962;9.182;2022-08-19T00:11:40;15.67;;;10.77;;
19679;SDS011;9989;48.962;9.182;2022-08-19T00:14:07;20.17;;;13.47;;
19679;SDS011;9989;48.962;9.182;2022-08-19T00:16:34;17.63;;;12.03;;
19679;SDS011;9989;48.962;9.182;2022-08-19T00:19:01;17.07;;;12.03;;
19679;SDS011;9989;48.962;9.182;2022-08-19T00:21:27;17.03;;;12.23;;
19679;SDS011;9989;48.962;9.182;2022-08-19T00:23:53;18.33;;;13.00;;
19679;SDS011;9989;48.962;9.182;2022-08-19T00:26:23;17.93;;;12.00;;
19679;SDS011;9989;48.962;9.182;2022-08-19T00:28:49;16.87;;;12.13;;
19679;SDS011;9989;48.962;9.182;2022-08-19T00:31:15;18.53;;;13.30;;
19679;SDS011;9989;48.962;9.182;2022-08-19T00:33:41;19.27;;;12.90;;
19679;SDS011;9989;48.962;9.182;2022-08-19T00:36:08;19.00;;;12.20;;
19679;SDS011;9989;48.962;9.182;2022-08-19T00:38:34;19.20;;;12.67;;
19679;SDS011;9989;48.962;9.182;2022-08-19T00:41:01;18.53;;;12.10;;
19679;SDS011;9989;48.962;9.182;2022-08-19T00:43:27;18.00;;;12.93;;
19679;SDS011;9989;48.962;9.182;2022-08-19T00:45:53;18.50;;;12.57;;
19679;SDS011;9989;48.962;9.182;2022-08-19T00:48:20;19.10;;;13.40;;
19679;SDS011;9989;48.962;9.182;2022-08-19T00:50:47;18.67;;;12.10;;
19679;SDS011;9989;48.962;9.182;2022-08-19T00:53:15;19.80;;;12.17;;
19679;SDS011;9989;48.962;9.182;2022-08-19T00:55:47;16.70;;;12.33;;
19679;SDS011;9989;48.962;9.182;2022-08-19T00:58:15;19.13;;;12.70;;
19679;SDS011;9989;48.962;9.182;2022-08-19T01:00:45;19.80;;;13.17;;
19679;SDS011;9989;48.962;9.182;2022-08-19T01:03:13;17.17;;;12.40;;
19679;SDS011;9989;48.962;9.182;2022-08-19T01:05:42;17.47;;;12.30;;
19679;SDS011;9989;48.962;9.182;2022-08-19T01:08:09;17.93;;;12.47;;
19679;SDS011;9989;48.962;9.182;2022-08-19T01:10:45;18.60;;;12.27;;
19679;SDS011;9989;48.962;9.182;2022-08-19T01:13:17;18.07;;;12.47;;
19679;SDS011;9989;48.962;9.182;2022-08-19T01:15:46;20.77;;;12.50;;
19679;SDS011;9989;48.962;9.182;2022-08-19T01:18:18;18.90;;;13.13;;
19679;SDS011;9989;48.962;9.182;2022-08-19T01:20:45;17.03;;;12.17;;
19679;SDS011;9989;48.962;9.182;2022-08-19T01:23:12;18.47;;;12.07;;
19679;SDS011;9989;48.962;9.182;2022-08-19T01:25:40;17.73;;;11.83;;
19679;SDS011;9989;48.962;9.182;2022-08-19T01:28:14;20.10;;;12.67;;
19679;SDS011;9989;48.962;9.182;2022-08-19T01:30:45;18.30;;;12.40;;
19679;SDS011;9989;48.962;9.182;2022-08-19T01:33:12;21.33;;;13.17;;
19679;SDS011;9989;48.962;9.182;2022-08-19T01:35:38;17.50;;;12.80;;
19679;SDS011;9989;48.962;9.182;2022-08-19T01:38:05;18.97;;;12.40;;
19679;SDS011;9989;48.962;9.182;2022-08-19T01:40:36;21.77;;;13.07;;
19679;SDS011;9989;48.962;9.182;2022-08-19T01:43:04;20.20;;;12.70;;
19679;SDS011;9989;48.962;9.182;2022-08-19T01:45:31;18.27;;;12.93;;
19679;SDS011;9989;48.962;9.182;2022-08-19T01:47:58;19.03;;;13.53;;
19679;SDS011;9989;48.962;9.182;2022-08-19T01:50:24;20.10;;;12.77;;
19679;SDS011;9989;48.962;9.182;2022-08-19T01:52:50;19.40;;;12.73;;
19679;SDS011;9989;48.962;9.182;2022-08-19T01:55:19;16.97;;;12.30;;
19679;SDS011;9989;48.962;9.182;2022-08-19T01:57:49;17.57;;;12.10;;
19679;SDS011;9989;48.962;9.182;2022-08-19T02:00:19;18.33;;;11.73;;
19679;SDS011;9989;48.962;9.182;2022-08-19T02:02:45;20.07;;;13.20;;
19679;SDS011;9989;48.962;9.182;2022-08-19T02:05:11;20.37;;;12.30;;
19679;SDS011;9989;48.962;9.182;2022-08-19T02:07:38;17.33;;;11.33;;
19679;SDS011;9989;48.962;9.182;2022-08-19T02:10:10;20.47;;;12.20;;
19679;SDS011;9989;48.962;9.182;2022-08-19T02:12:38;19.93;;;12.67;;
19679;SDS011;9989;48.962;9.182;2022-08-19T02:15:04;17.40;;;12.37;;
19679;SDS011;9989;48.962;9.182;2022-08-19T02:17:31;18.20;;;12.07;;
19679;SDS011;9989;48.962;9.182;2022-08-19T02:19:57;18.20;;;12.17;;
19679;SDS011;9989;48.962;9.182;2022-08-19T02:22:23;20.10;;;13.13;;
19679;SDS011;9989;48.962;9.182;2022-08-19T02:24:50;20.40;;;13.97;;
19679;SDS011;9989;48.962;9.182;2022-08-19T02:27:19;19.60;;;12.90;;
19679;SDS011;9989;48.962;9.182;2022-08-19T02:29:46;23.47;;;14.07;;
19679;SDS011;9989;48.962;9.182;2022-08-19T02:32:13;19.03;;;13.27;;
19679;SDS011;9989;48.962;9.182;2022-08-19T02:34:39;22.37;;;13.87;;
19679;SDS011;9989;48.962;9.182;2022-08-19T02:37:05;18.93;;;12.43;;
19679;SDS011;9989;48.962;9.182;2022-08-19T02:39:51;20.43;;;13.57;;
19679;SDS011;9989;48.962;9.182;2022-08-19T02:42:16;20.67;;;13.53;;
19679;SDS011;9989;48.962;9.182;2022-08-19T02:44:42;20.97;;;13.53;;
19679;SDS011;9989;48.962;9.182;2022-08-19T02:47:08;20.13;;;13.20;;
19679;SDS011;9989;48.962;9.182;2022-08-19T02:49:35;18.23;;;12.43;;
19679;SDS011;9989;48.962;9.182;2022-08-19T02:52:00;19.67;;;13.57;;
19679;SDS011;9989;48.962;9.182;2022-08-19T02:54:26;19.67;;;13.30;;
19679;SDS011;9989;48.962;9.182;2022-08-19T02:56:52;22.97;;;14.20;;
19679;SDS011;9989;48.962;9.182;2022-08-19T02:59:18;20.80;;;12.87;;
19679;SDS011;9989;48.962;9.182;2022-08-19T03:01:44;24.80;;;14.40;;
19679;SDS011;9989;48.962;9.182;2022-08-19T03:04:12;20.93;;;14.07;;
19679;SDS011;9989;48.962;9.182;2022-08-19T03:06:39;20.97;;;13.87;;
19679;SDS011;9989;48.962;9.182;2022-08-19T03:09:08;19.73;;;13.17;;
19679;SDS011;9989;48.962;9.182;2022-08-19T03:11:34;18.17;;;12.60;;
19679;SDS011;9989;48.962;9.182;2022-08-19T03:14:00;21.43;;;13.17;;
19679;SDS011;9989;48.962;9.182;2022-08-19T03:16:28;20.97;;;13.23;;
19679;SDS011;9989;48.962;9.182;2022-08-19T03:18:56;24.30;;;14.43;;
19679;SDS011;9989;48.962;9.182;2022-08-19T03:21:26;21.93;;;14.30;;
19679;SDS011;9989;48.962;9.182;2022-08-19T03:23:54;20.93;;;13.90;;
19679;SDS011;9989;48.962;9.182;2022-08-19T03:26:22;22.73;;;15.20;;
19679;SDS011;9989;48.962;9.182;2022-08-19T03:28:48;27.33;;;16.13;;
19679;SDS011;9989;48.962;9.182;2022-08-19T03:31:15;21.47;;;14.23;;
19679;SDS011;9989;48.962;9.182;2022-08-19T03:33:43;23.90;;;14.83;;
19679;SDS011;9989;48.962;9.182;2022-08-19T03:38:38;24.33;;;14.43;;
19679;SDS011;9989;48.962;9.182;2022-08-19T03:41:07;25.33;;;15.57;;
19679;SDS011;9989;48.962;9.182;2022-08-19T03:43:39;21.67;;;13.90;;
19679;SDS011;9989;48.962;9.182;2022-08-19T03:46:07;26.80;;;16.37;;
19679;SDS011;9989;48.962;9.182;2022-08-19T03:48:35;24.10;;;15.57;;
19679;SDS011;9989;48.962;9.182;2022-08-19T03:51:02;26.10;;;16.57;;
19679;SDS011;9989;48.962;9.182;2022-08-19T03:53:28;24.17;;;14.97;;
19679;SDS011;9989;48.962;9.182;2022-08-19T03:55:55;21.60;;;14.00;;
19679;SDS011;9989;48.962;9.182;2022-08-19T03:58:21;24.73;;;15.63;;
19679;SDS011;9989;48.962;9.182;2022-08-19T04:00:47;23.53;;;15.40;;
19679;SDS011;9989;48.962;9.182;2022-08-19T04:03:13;24.27;;;15.67;;
19679;SDS011;9989;48.962;9.182;2022-08-19T04:05:39;25.60;;;15.73;;
19679;SDS011;9989;48.962;9.182;2022-08-19T04:08:04;25.20;;;16.20;;
19679;SDS011;9989;48.962;9.182;2022-08-19T04:10:30;27.03;;;17.57;;
19679;SDS011;9989;48.962;9.182;2022-08-19T04:13:00;25.80;;;17.67;;
19679;SDS011;9989;48.962;9.182;2022-08-19T04:15:26;27.97;;;17.50;;
19679;SDS011;9989;48.962;9.182;2022-08-19T04:17:53;25.70;;;17.10;;
19679;SDS011;9989;48.962;9.182;2022-08-19T04:20:19;26.43;;;16.77;;
19679;SDS011;9989;48.962;9.182;2022-08-19T04:22:45;25.80;;;16.50;;
19679;SDS011;9989;48.962;9.182;2022-08-19T04:25:11;26.17;;;17.47;;
19679;SDS011;9989;48.962;9.182;2022-08-19T04:27:36;23.70;;;16.40;;
19679;SDS011;9989;48.962;9.182;2022-08-19T04:30:06;26.03;;;16.97;;
19679;SDS011;9989;48.962;9.182;2022-08-19T04:32:32;24.63;;;17.03;;
19679;SDS011;9989;48.962;9.182;2022-08-19T04:35:00;23.60;;;15.90;;
19679;SDS011;9989;48.962;9.182;2022-08-19T04:37:26;23.27;;;15.87;;
19679;SDS011;9989;48.962;9.182;2022-08-19T04:39:52;25.03;;;16.43;;
19679;SDS011;9989;48.962;9.182;2022-08-19T04:42:36;28.27;;;17.33;;
19679;SDS011;9989;48.962;9.182;2022-08-19T04:45:05;25.37;;;16.53;;
19679;SDS011;9989;48.962;9.182;2022-08-19T04:47:37;26.57;;;17.77;;
19679;SDS011;9989;48.962;9.182;2022-08-19T04:50:05;26.17;;;17.73;;
19679;SDS011;9989;48.962;9.182;2022-08-19T04:52:32;26.90;;;17.23;;
19679;SDS011;9989;48.962;9.182;2022-08-19T04:54:58;25.40;;;16.47;;
19679;SDS011;9989;48.962;9.182;2022-08-19T04:57:24;26.73;;;18.27;;
19679;SDS011;9989;48.962;9.182;2022-08-19T04:59:54;28.13;;;18.50;;
19679;SDS011;9989;48.962;9.182;2022-08-19T05:02:21;24.90;;;14.87;;
19679;SDS011;9989;48.962;9.182;2022-08-19T05:04:50;28.00;;;16.83;;
19679;SDS011;9989;48.962;9.182;2022-08-19T05:07:25;25.87;;;16.47;;
19679;SDS011;9989;48.962;9.182;2022-08-19T05:09:51;25.80;;;17.67;;
19679;SDS011;9989;48.962;9.182;2022-08-19T05:12:17;23.10;;;16.30;;
19679;SDS011;9989;48.962;9.182;2022-08-19T05:14:44;26.07;;;16.60;;
19679;SDS011;9989;48.962;9.182;2022-08-19T05:17:12;26.80;;;16.93;;
19679;SDS011;9989;48.962;9.182;2022-08-19T05:19:40;24.80;;;16.10;;
19679;SDS011;9989;48.962;9.182;2022-08-19T05:22:25;20.80;;;14.30;;
19679;SDS011;9989;48.962;9.182;2022-08-19T05:25:07;24.03;;;15.73;;
19679;SDS011;9989;48.962;9.182;2022-08-19T05:27:37;24.87;;;16.50;;
19679;SDS011;9989;48.962;9.182;2022-08-19T05:30:03;21.83;;;15.20;;
19679;SDS011;9989;48.962;9.182;2022-08-19T05:32:30;22.17;;;15.37;;
19679;SDS011;9989;48.962;9.182;2022-08-19T05:34:55;26.27;;;16.83;;
19679;SDS011;9989;48.962;9.182;2022-08-19T05:37:21;28.07;;;15.90;;
19679;SDS011;9989;48.962;9.182;2022-08-19T05:39:47;23.57;;;16.77;;
19679;SDS011;9989;48.962;9.182;2022-08-19T05:42:14;25.70;;;16.77;;
19679;SDS011;9989;48.962;9.182;2022-08-19T05:44:40;23.37;;;15.93;;
19679;SDS011;9989;48.962;9.182;2022-08-19T05:47:09;25.70;;;16.27;;
19679;SDS011;9989;48.962;9.182;2022-08-19T05:49:36;27.20;;;18.23;;
19679;SDS011;9989;48.962;9.182;2022-08-19T05:52:03;30.93;;;18.40;;
19679;SDS011;9989;48.962;9.182;2022-08-19T05:54:32;27.17;;;17.63;;
19679;SDS011;9989;48.962;9.182;2022-08-19T05:56:58;29.00;;;18.83;;
19679;SDS011;9989;48.962;9.182;2022-08-19T05:59:25;24.27;;;16.20;;
19679;SDS011;9989;48.962;9.182;2022-08-19T06:01:51;27.27;;;18.27;;
19679;SDS011;9989;48.962;9.182;2022-08-19T06:04:20;24.93;;;17.30;;
19679;SDS011;9989;48.962;9.182;2022-08-19T06:06:47;25.83;;;18.40;;
19679;SDS011;9989;48.962;9.182;2022-08-19T06:09:15;28.97;;;18.87;;
19679;SDS011;9989;48.962;9.182;2022-08-19T06:11:42;24.70;;;16.97;;
19679;SDS011;9989;48.962;9.182;2022-08-19T06:14:19;24.67;;;17.90;;
19679;SDS011;9989;48.962;9.182;2022-08-19T06:16:47;27.67;;;18.13;;
19679;SDS011;9989;48.962;9.182;2022-08-19T06:19:15;31.03;;;18.17;;
19679;SDS011;9989;48.962;9.182;2022-08-19T06:21:43;29.17;;;18.13;;
19679;SDS011;9989;48.962;9.182;2022-08-19T06:24:11;23.63;;;16.73;;
19679;SDS011;9989;48.962;9.182;2022-08-19T06:26:40;23.73;;;17.63;;
19679;SDS011;9989;48.962;9.182;2022-08-19T06:29:08;28.57;;;17.70;;
19679;SDS011;9989;48.962;9.182;2022-08-19T06:31:35;27.17;;;17.10;;
19679;SDS011;9989;48.962;9.182;2022-08-19T06:34:02;25.47;;;16.97;;
19679;SDS011;9989;48.962;9.182;2022-08-19T06:36:30;23.90;;;16.07;;
19679;SDS011;9989;48.962;9.182;2022-08-19T06:39:05;23.77;;;16.93;;
19679;SDS011;9989;48.962;9.182;2022-08-19T06:41:37;23.27;;;16.67;;
19679;SDS011;9989;48.962;9.182;2022-08-19T06:44:04;24.43;;;17.63;;
19679;SDS011;9989;48.962;9.182;2022-08-19T06:46:30;24.50;;;15.87;;
19679;SDS011;9989;48.962;9.182;2022-08-19T06:48:56;23.47;;;16.60;;
19679;SDS011;9989;48.962;9.182;2022-08-19T06:51:22;23.93;;;16.13;;
19679;SDS011;9989;48.962;9.182;2022-08-19T06:53:50;24.13;;;16.77;;
19679;SDS011;9989;48.962;9.182;2022-08-19T06:56:19;23.97;;;16.23;;
19679;SDS011;9989;48.962;9.182;2022-08-19T06:58:48;27.00;;;16.53;;
19679;SDS011;9989;48.962;9.182;2022-08-19T07:01:18;22.57;;;15.20;;
19679;SDS011;9989;48.962;9.182;2022-08-19T07:03:44;24.20;;;15.20;;
19679;SDS011;9989;48.962;9.182;2022-08-19T07:06:12;31.43;;;15.27;;
19679;SDS011;9989;48.962;9.182;2022-08-19T07:08:42;27.37;;;16.97;;
19679;SDS011;9989;48.962;9.182;2022-08-19T07:11:10;22.63;;;14.77;;
19679;SDS011;9989;48.962;9.182;2022-08-19T07:13:37;24.00;;;16.10;;
19679;SDS011;9989;48.962;9.182;2022-08-19T07:16:04;24.47;;;15.63;;
19679;SDS011;9989;48.962;9.182;2022-08-19T07:18:31;24.80;;;16.00;;
19679;SDS011;9989;48.962;9.182;2022-08-19T07:21:04;23.73;;;15.63;;
19679;SDS011;9989;48.962;9.182;2022-08-19T07:23:35;23.80;;;15.60;;
19679;SDS011;9989;48.962;9.182;2022-08-19T07:28:57;25.10;;;15.50;;
19679;SDS011;9989;48.962;9.182;2022-08-19T07:31:25;26.07;;;15.90;;
19679;SDS011;9989;48.962;9.182;2022-08-19T07:33:52;22.07;;;15.33;;
19679;SDS011;9989;48.962;9.182;2022-08-19T07:36:21;22.63;;;15.77;;
19679;SDS011;9989;48.962;9.182;2022-08-19T07:38:50;23.67;;;15.97;;
19679;SDS011;9989;48.962;9.182;2022-08-19T07:41:21;20.63;;;14.27;;
19679;SDS011;9989;48.962;9.182;2022-08-19T07:43:49;24.23;;;15.47;;
19679;SDS011;9989;48.962;9.182;2022-08-19T07:46:15;24.27;;;15.57;;
19679;SDS011;9989;48.962;9.182;2022-08-19T07:48:42;22.33;;;14.50;;
19679;SDS011;9989;48.962;9.182;2022-08-19T07:51:11;19.07;;;13.87;;
19679;SDS011;9989;48.962;9.182;2022-08-19T07:53:37;20.20;;;13.77;;
19679;SDS011;9989;48.962;9.182;2022-08-19T07:56:03;24.40;;;15.13;;
19679;SDS011;9989;48.962;9.182;2022-08-19T07:58:31;18.80;;;13.37;;
19679;SDS011;9989;48.962;9.182;2022-08-19T08:00:58;19.87;;;13.87;;
19679;SDS011;9989;48.962;9.182;2022-08-19T08:03:25;20.00;;;12.83;;
19679;SDS011;9989;48.962;9.182;2022-08-19T08:06:11;23.03;;;14.37;;
19679;SDS011;9989;48.962;9.182;2022-08-19T08:08:57;19.87;;;13.67;;
19679;SDS011;9989;48.962;9.182;2022-08-19T08:11:41;20.13;;;13.40;;
19679;SDS011;9989;48.962;9.182;2022-08-19T08:14:14;22.83;;;13.67;;
19679;SDS011;9989;48.962;9.182;2022-08-19T08:16:45;19.43;;;13.73;;
19679;SDS011;9989;48.962;9.182;2022-08-19T08:19:11;18.37;;;13.27;;
19679;SDS011;9989;48.962;9.182;2022-08-19T08:21:39;18.90;;;12.90;;
19679;SDS011;9989;48.962;9.182;2022-08-19T08:24:05;19.93;;;12.87;;
19679;SDS011;9989;48.962;9.182;2022-08-19T08:26:31;21.40;;;14.33;;
19679;SDS011;9989;48.962;9.182;2022-08-19T08:28:58;20.73;;;14.20;;
19679;SDS011;9989;48.962;9.182;2022-08-19T08:31:24;23.13;;;14.83;;
19679;SDS011;9989;48.962;9.182;2022-08-19T08:33:50;23.30;;;13.70;;
19679;SDS011;9989;48.962;9.182;2022-08-19T08:36:15;18.77;;;13.90;;
19679;SDS011;9989;48.962;9.182;2022-08-19T08:38:42;23.03;;;14.03;;
19679;SDS011;9989;48.962;9.182;2022-08-19T08:43:53;20.07;;;13.40;;
19679;SDS011;9989;48.962;9.182;2022-08-19T08:46:25;20.03;;;13.77;;
19679;SDS011;9989;48.962;9.182;2022-08-19T08:49:05;24.07;;;14.10;;
19679;SDS011;9989;48.962;9.182;2022-08-19T08:51:43;20.23;;;13.27;;
19679;SDS011;9989;48.962;9.182;2022-08-19T08:54:13;18.20;;;13.47;;
19679;SDS011;9989;48.962;9.182;2022-08-19T08:56:42;20.43;;;13.00;;
19679;SDS011;9989;48.962;9.182;2022-08-19T09:01:44;18.00;;;12.40;;
19679;SDS011;9989;48.962;9.182;2022-08-19T09:04:09;19.80;;;12.77;;
19679;SDS011;9989;48.962;9.182;2022-08-19T09:06:51;22.23;;;13.63;;
19679;SDS011;9989;48.962;9.182;2022-08-19T09:09:30;18.13;;;12.90;;
19679;SDS011;9989;48.962;9.182;2022-08-19T09:15:09;19.67;;;13.03;;
19679;SDS011;9989;48.962;9.182;2022-08-19T09:17:36;19.60;;;12.83;;
19679;SDS011;9989;48.962;9.182;2022-08-19T09:22:38;20.00;;;12.17;;
19679;SDS011;9989;48.962;9.182;2022-08-19T09:25:07;20.13;;;13.00;;
19679;SDS011;9989;48.962;9.182;2022-08-19T09:27:35;16.73;;;11.90;;
19679;SDS011;9989;48.962;9.182;2022-08-19T09:30:03;19.47;;;11.60;;
19679;SDS011;9989;48.962;9.182;2022-08-19T09:32:29;16.97;;;10.87;;
19679;SDS011;9989;48.962;9.182;2022-08-19T09:34:55;16.87;;;12.50;;
19679;SDS011;9989;48.962;9.182;2022-08-19T09:37:23;18.77;;;11.93;;
19679;SDS011;9989;48.962;9.182;2022-08-19T09:39:49;16.00;;;11.37;;
19679;SDS011;9989;48.962;9.182;2022-08-19T09:42:15;20.33;;;13.27;;
19679;SDS011;9989;48.962;9.182;2022-08-19T09:44:41;18.10;;;11.87;;
19679;SDS011;9989;48.962;9.182;2022-08-19T09:47:08;17.90;;;11.77;;
19679;SDS011;9989;48.962;9.182;2022-08-19T09:49:36;16.43;;;11.00;;
19679;SDS011;9989;48.962;9.182;2022-08-19T09:52:02;18.10;;;11.50;;
19679;SDS011;9989;48.962;9.182;2022-08-19T09:54:28;16.57;;;11.50;;
19679;SDS011;9989;48.962;9.182;2022-08-19T09:56:54;17.03;;;11.90;;
19679;SDS011;9989;48.962;9.182;2022-08-19T09:59:22;15.87;;;11.57;;
19679;SDS011;9989;48.962;9.182;2022-08-19T10:01:48;16.15;;;11.15;;
19679;SDS011;9989;48.962;9.182;2022-08-19T10:04:15;17.10;;;10.57;;
19679;SDS011;9989;48.962;9.182;2022-08-19T10:06:41;21.50;;;12.47;;
19679;SDS011;9989;48.962;9.182;2022-08-19T10:09:07;16.03;;;10.80;;
19679;SDS011;9989;48.962;9.182;2022-08-19T10:11:35;15.70;;;10.93;;
19679;SDS011;9989;48.962;9.182;2022-08-19T10:14:02;16.10;;;10.83;;
19679;SDS011;9989;48.962;9.182;2022-08-19T10:16:30;21.33;;;11.50;;
19679;SDS011;9989;48.962;9.182;2022-08-19T10:18:56;19.03;;;11.03;;
19679;SDS011;9989;48.962;9.182;2022-08-19T10:21:24;19.03;;;10.53;;
19679;SDS011;9989;48.962;9.182;2022-08-19T10:23:52;18.00;;;10.20;;
19679;SDS011;9989;48.962;9.182;2022-08-19T10:26:24;14.50;;;9.70;;
19679;SDS011;9989;48.962;9.182;2022-08-19T10:28:52;14.87;;;9.47;;
19679;SDS011;9989;48.962;9.182;2022-08-19T10:31:19;15.13;;;9.67;;
19679;SDS011;9989;48.962;9.182;2022-08-19T10:33:46;13.60;;;8.87;;
19679;SDS011;9989;48.962;9.182;2022-08-19T10:36:21;11.13;;;8.33;;
19679;SDS011;9989;48.962;9.182;2022-08-19T10:38:50;13.00;;;8.40;;
19679;SDS011;9989;48.962;9.182;2022-08-19T10:41:18;13.93;;;8.83;;
19679;SDS011;9989;48.962;9.182;2022-08-19T10:43:47;11.40;;;7.73;;
19679;SDS011;9989;48.962;9.182;2022-08-19T10:46:19;13.33;;;7.77;;
19679;SDS011;9989;48.962;9.182;2022-08-19T10:48:46;11.67;;;6.90;;
19679;SDS011;9989;48.962;9.182;2022-08-19T10:51:12;15.33;;;8.17;;
19679;SDS011;9989;48.962;9.182;2022-08-19T10:53:57;12.30;;;7.67;;
19679;SDS011;9989;48.962;9.182;2022-08-19T10:56:23;16.00;;;7.23;;
19679;SDS011;9989;48.962;9.182;2022-08-19T10:59:08;10.67;;;7.40;;
19679;SDS011;9989;48.962;9.182;2022-08-19T11:01:35;15.33;;;7.70;;
19679;SDS011;9989;48.962;9.182;2022-08-19T11:04:01;11.57;;;7.63;;
19679;SDS011;9989;48.962;9.182;2022-08-19T11:06:28;17.70;;;8.57;;
19679;SDS011;9989;48.962;9.182;2022-08-19T11:08:56;11.20;;;7.57;;
19679;SDS011;9989;48.962;9.182;2022-08-19T11:11:22;14.60;;;8.40;;
19679;SDS011;9989;48.962;9.182;2022-08-19T11:13:48;11.97;;;8.07;;
19679;SDS011;9989;48.962;9.182;2022-08-19T11:16:22;13.13;;;8.50;;
19679;SDS011;9989;48.962;9.182;2022-08-19T11:18:51;13.23;;;8.10;;
19679;SDS011;9989;48.962;9.182;2022-08-19T11:21:19;12.97;;;8.47;;
19679;SDS011;9989;48.962;9.182;2022-08-19T11:23:51;14.20;;;8.67;;
19679;SDS011;9989;48.962;9.182;2022-08-19T11:26:19;13.70;;;8.17;;
19679;SDS011;9989;48.962;9.182;2022-08-19T11:28:46;13.03;;;8.77;;
19679;SDS011;9989;48.962;9.182;2022-08-19T11:31:13;11.93;;;8.27;;
19679;SDS011;9989;48.962;9.182;2022-08-19T11:33:41;13.17;;;9.03;;
19679;SDS011;9989;48.962;9.182;2022-08-19T11:36:07;13.70;;;8.60;;
19679;SDS011;9989;48.962;9.182;2022-08-19T11:38:34;12.27;;;8.10;;
19679;SDS011;9989;48.962;9.182;2022-08-19T11:41:03;10.67;;;7.73;;
19679;SDS011;9989;48.962;9.182;2022-08-19T11:43:30;11.83;;;8.17;;
19679;SDS011;9989;48.962;9.182;2022-08-19T11:45:56;11.80;;;8.07;;
19679;SDS011;9989;48.962;9.182;2022-08-19T11:48:23;14.63;;;8.40;;
19679;SDS011;9989;48.962;9.182;2022-08-19T11:50:50;14.87;;;8.97;;
19679;SDS011;9989;48.962;9.182;2022-08-19T11:53:17;15.27;;;8.63;;
19679;SDS011;9989;48.962;9.182;2022-08-19T11:55:44;15.37;;;9.43;;
19679;SDS011;9989;48.962;9.182;2022-08-19T11:58:11;15.63;;;9.47;;
19679;SDS011;9989;48.962;9.182;2022-08-19T12:00:38;13.40;;;8.27;;
19679;SDS011;9989;48.962;9.182;2022-08-19T12:03:05;12.40;;;8.53;;
19679;SDS011;9989;48.962;9.182;2022-08-19T12:05:30;13.10;;;9.23;;
19679;SDS011;9989;48.962;9.182;2022-08-19T12:07:56;14.57;;;8.57;;
19679;SDS011;9989;48.962;9.182;2022-08-19T12:10:22;16.90;;;9.23;;
19679;SDS011;9989;48.962;9.182;2022-08-19T12:12:48;10.67;;;7.67;;
19679;SDS011;9989;48.962;9.182;2022-08-19T12:15:14;13.07;;;8.20;;
19679;SDS011;9989;48.962;9.182;2022-08-19T12:17:40;13.10;;;9.23;;
19679;SDS011;9989;48.962;9.182;2022-08-19T12:20:07;12.70;;;8.97;;
19679;SDS011;9989;48.962;9.182;2022-08-19T12:22:34;11.90;;;8.60;;
19679;SDS011;9989;48.962;9.182;2022-08-19T12:25:01;12.23;;;8.90;;
19679;SDS011;9989;48.962;9.182;2022-08-19T12:27:27;11.83;;;8.70;;
19679;SDS011;9989;48.962;9.182;2022-08-19T12:29:52;13.03;;;8.90;;
19679;SDS011;9989;48.962;9.182;2022-08-19T12:32:18;11.60;;;8.23;;
19679;SDS011;9989;48.962;9.182;2022-08-19T12:34:44;13.20;;;8.60;;
19679;SDS011;9989;48.962;9.182;2022-08-19T12:37:12;11.47;;;8.27;;
19679;SDS011;9989;48.962;9.182;2022-08-19T12:39:39;10.90;;;7.30;;
19679;SDS011;9989;48.962;9.182;2022-08-19T12:42:07;11.43;;;7.40;;
19679;SDS011;9989;48.962;9.182;2022-08-19T12:44:34;11.73;;;7.60;;
19679;SDS011;9989;48.962;9.182;2022-08-19T12:47:01;10.97;;;6.87;;
19679;SDS011;9989;48.962;9.182;2022-08-19T12:49:28;11.60;;;6.70;;
19679;SDS011;9989;48.962;9.182;2022-08-19T12:51:54;10.60;;;6.43;;
19679;SDS011;9989;48.962;9.182;2022-08-19T12:54:20;10.60;;;6.50;;
19679;SDS011;9989;48.962;9.182;2022-08-19T12:56:46;10.10;;;6.50;;
19679;SDS011;9989;48.962;9.182;2022-08-19T12:59:11;11.10;;;6.73;;
19679;SDS011;9989;48.962;9.182;2022-08-19T13:01:37;10.17;;;6.37;;
19679;SDS011;9989;48.962;9.182;2022-08-19T13:04:03;10.73;;;6.90;;
19679;SDS011;9989;48.962;9.182;2022-08-19T13:06:28;10.00;;;6.70;;
19679;SDS011;9989;48.962;9.182;2022-08-19T13:08:55;9.20;;;6.20;;
19679;SDS011;9989;48.962;9.182;2022-08-19T13:11:21;9.77;;;6.87;;
19679;SDS011;9989;48.962;9.182;2022-08-19T13:13:49;11.57;;;6.97;;
19679;SDS011;9989;48.962;9.182;2022-08-19T13:16:16;10.03;;;6.23;;
19679;SDS011;9989;48.962;9.182;2022-08-19T13:18:44;10.77;;;6.90;;
19679;SDS011;9989;48.962;9.182;2022-08-19T13:21:15;9.30;;;6.20;;
19679;SDS011;9989;48.962;9.182;2022-08-19T13:23:40;11.67;;;6.53;;
19679;SDS011;9989;48.962;9.182;2022-08-19T13:26:06;10.77;;;6.80;;
19679;SDS011;9989;48.962;9.182;2022-08-19T13:28:34;11.97;;;6.47;;
19679;SDS011;9989;48.962;9.182;2022-08-19T13:31:19;10.80;;;6.57;;
19679;SDS011;9989;48.962;9.182;2022-08-19T13:34:05;9.50;;;6.43;;
19679;SDS011;9989;48.962;9.182;2022-08-19T13:36:34;10.20;;;6.83;;
19679;SDS011;9989;48.962;9.182;2022-08-19T13:39:02;9.47;;;5.87;;
19679;SDS011;9989;48.962;9.182;2022-08-19T13:41:29;11.20;;;6.57;;
19679;SDS011;9989;48.962;9.182;2022-08-19T13:43:55;10.87;;;6.63;;
19679;SDS011;9989;48.962;9.182;2022-08-19T13:46:20;10.30;;;6.57;;
19679;SDS011;9989;48.962;9.182;2022-08-19T13:48:46;10.33;;;7.13;;
19679;SDS011;9989;48.962;9.182;2022-08-19T13:51:16;11.17;;;6.60;;
19679;SDS011;9989;48.962;9.182;2022-08-19T13:53:42;14.83;;;9.00;;
19679;SDS011;9989;48.962;9.182;2022-08-19T13:56:10;12.60;;;7.80;;
19679;SDS011;9989;48.962;9.182;2022-08-19T13:58:40;11.77;;;6.97;;
19679;SDS011;9989;48.962;9.182;2022-08-19T14:01:05;12.83;;;8.13;;
19679;SDS011;9989;48.962;9.182;2022-08-19T14:03:32;12.07;;;7.60;;
19679;SDS011;9989;48.962;9.182;2022-08-19T14:05:59;12.53;;;7.53;;
19679;SDS011;9989;48.962;9.182;2022-08-19T14:08:24;11.60;;;7.60;;
19679;SDS011;9989;48.962;9.182;2022-08-19T14:10:52;12.03;;;8.27;;
19679;SDS011;9989;48.962;9.182;2022-08-19T14:13:21;12.77;;;8.30;;
19679;SDS011;9989;48.962;9.182;2022-08-19T14:15:48;14.20;;;7.20;;
19679;SDS011;9989;48.962;9.182;2022-08-19T14:18:15;10.53;;;6.50;;
19679;SDS011;9989;48.962;9.182;2022-08-19T14:20:42;11.77;;;7.60;;
19679;SDS011;9989;48.962;9.182;2022-08-19T14:23:08;12.83;;;7.27;;
19679;SDS011;9989;48.962;9.182;2022-08-19T14:25:33;10.30;;;6.90;;
19679;SDS011;9989;48.962;9.182;2022-08-19T14:27:59;12.37;;;7.70;;
19679;SDS011;9989;48.962;9.182;2022-08-19T14:30:27;11.70;;;6.67;;
19679;SDS011;9989;48.962;9.182;2022-08-19T14:32:55;12.07;;;7.07;;
19679;SDS011;9989;48.962;9.182;2022-08-19T14:35:23;12.23;;;8.20;;
19679;SDS011;9989;48.962;9.182;2022-08-19T14:37:49;12.90;;;8.53;;
19679;SDS011;9989;48.962;9.182;2022-08-19T14:40:19;13.03;;;8.50;;
19679;SDS011;9989;48.962;9.182;2022-08-19T14:42:50;15.60;;;10.37;;
19679;SDS011;9989;48.962;9.182;2022-08-19T14:45:18;18.27;;;13.07;;
19679;SDS011;9989;48.962;9.182;2022-08-19T14:47:44;17.30;;;12.43;;
19679;SDS011;9989;48.962;9.182;2022-08-19T14:50:10;17.53;;;11.80;;
19679;SDS011;9989;48.962;9.182;2022-08-19T14:52:36;18.50;;;12.10;;
19679;SDS011;9989;48.962;9.182;2022-08-19T14:55:02;17.70;;;12.20;;
19679;SDS011;9989;48.962;9.182;2022-08-19T14:57:28;18.23;;;12.50;;
19679;SDS011;9989;48.962;9.182;2022-08-19T14:59:54;18.43;;;12.43;;